sensor_id;sensor_type;location;lat;lon;timestamp;temperature;humidity
75489;HTU21D;64069;46.396;48.102;2023-04-01T00:00:32;7.15;55.02
75489;HTU21D;64069;46.396;48.102;2023-04-01T00:02:58;7.10;55.16
75489;HTU21D;64069;46.396;48.102;2023-04-01T00:05:25;7.03;55.27
75489;HTU21D;64069;46.396;48.102;2023-04-01T00:07:51;6.96;55.49
75489;HTU21D;64069;46.396;48.102;2023-04-01T00:10:18;6.86;55.78
75489;HTU21D;64069;46.396;48.102;2023-04-01T00:12:43;6.78;55.87
75489;HTU21D;64069;46.396;48.102;2023-04-01T00:15:11;6.68;56.11
75489;HTU21D;64069;46.396;48.102;2023-04-01T00:17:37;6.60;56.41
75489;HTU21D;64069;46.396;48.102;2023-04-01T00:20:05;6.53;56.60
75489;HTU21D;64069;46.396;48.102;2023-04-01T00:22:32;6.46;56.70
75489;HTU21D;64069;46.396;48.102;2023-04-01T00:24:59;6.40;56.81
75489;HTU21D;64069;46.396;48.102;2023-04-01T00:27:25;6.36;56.97
75489;HTU21D;64069;46.396;48.102;2023-04-01T00:29:51;6.33;57.13
75489;HTU21D;64069;46.396;48.102;2023-04-01T00:32:17;6.28;57.35
75489;HTU21D;64069;46.396;48.102;2023-04-01T00:34:43;6.24;57.48
75489;HTU21D;64069;46.396;48.102;2023-04-01T00:37:10;6.19;57.68
75489;HTU21D;64069;46.396;48.102;2023-04-01T00:39:37;6.19;57.90
75489;HTU21D;64069;46.396;48.102;2023-04-01T00:42:03;6.16;57.89
75489;HTU21D;64069;46.396;48.102;2023-04-01T00:44:32;6.17;57.95
75489;HTU21D;64069;46.396;48.102;2023-04-01T00:46:59;6.19;57.91
75489;HTU21D;64069;46.396;48.102;2023-04-01T00:49:30;6.25;57.99
75489;HTU21D;64069;46.396;48.102;2023-04-01T00:51:59;6.30;57.93
75489;HTU21D;64069;46.396;48.102;2023-04-01T00:54:27;6.36;57.87
75489;HTU21D;64069;46.396;48.102;2023-04-01T00:57:04;6.42;57.93
75489;HTU21D;64069;46.396;48.102;2023-04-01T00:59:34;6.46;57.90
75489;HTU21D;64069;46.396;48.102;2023-04-01T01:02:07;6.51;58.02
75489;HTU21D;64069;46.396;48.102;2023-04-01T01:04:34;6.55;57.96
75489;HTU21D;64069;46.396;48.102;2023-04-01T01:18:27;6.46;58.29
75489;HTU21D;64069;46.396;48.102;2023-04-01T01:32:07;6.13;59.24
75489;HTU21D;64069;46.396;48.102;2023-04-01T01:34:40;6.09;59.42
75489;HTU21D;64069;46.396;48.102;2023-04-01T01:37:13;6.09;59.51
75489;HTU21D;64069;46.396;48.102;2023-04-01T01:39:43;6.09;59.45
75489;HTU21D;64069;46.396;48.102;2023-04-01T01:42:13;6.10;59.51
75489;HTU21D;64069;46.396;48.102;2023-04-01T01:44:42;6.10;59.50
75489;HTU21D;64069;46.396;48.102;2023-04-01T01:47:10;6.14;59.64
75489;HTU21D;64069;46.396;48.102;2023-04-01T01:49:38;6.16;59.75
75489;HTU21D;64069;46.396;48.102;2023-04-01T01:52:06;6.20;59.55
75489;HTU21D;64069;46.396;48.102;2023-04-01T01:54:31;6.23;59.52
75489;HTU21D;64069;46.396;48.102;2023-04-01T01:57:07;6.27;59.62
75489;HTU21D;64069;46.396;48.102;2023-04-01T01:59:38;6.31;59.49
75489;HTU21D;64069;46.396;48.102;2023-04-01T02:02:08;6.37;59.52
75489;HTU21D;64069;46.396;48.102;2023-04-01T02:04:37;6.40;59.46
75489;HTU21D;64069;46.396;48.102;2023-04-01T02:07:08;6.44;59.57
75489;HTU21D;64069;46.396;48.102;2023-04-01T02:09:37;6.50;59.54
75489;HTU21D;64069;46.396;48.102;2023-04-01T02:12:06;6.54;59.48
75489;HTU21D;64069;46.396;48.102;2023-04-01T02:15:03;6.59;59.44
75489;HTU21D;64069;46.396;48.102;2023-04-01T02:17:32;6.64;59.38
75489;HTU21D;64069;46.396;48.102;2023-04-01T02:20:02;6.68;59.35
75489;HTU21D;64069;46.396;48.102;2023-04-01T02:22:35;6.71;59.30
75489;HTU21D;64069;46.396;48.102;2023-04-01T02:25:06;6.74;59.22
75489;HTU21D;64069;46.396;48.102;2023-04-01T02:27:33;6.76;59.20
75489;HTU21D;64069;46.396;48.102;2023-04-01T02:30:00;6.79;59.19
75489;HTU21D;64069;46.396;48.102;2023-04-01T02:32:26;6.78;59.25
75489;HTU21D;64069;46.396;48.102;2023-04-01T02:34:53;6.78;59.28
75489;HTU21D;64069;46.396;48.102;2023-04-01T02:37:20;6.76;59.33
75489;HTU21D;64069;46.396;48.102;2023-04-01T02:39:46;6.74;59.35
75489;HTU21D;64069;46.396;48.102;2023-04-01T02:42:13;6.74;59.42
75489;HTU21D;64069;46.396;48.102;2023-04-01T02:44:40;6.74;59.42
75489;HTU21D;64069;46.396;48.102;2023-04-01T02:47:06;6.75;59.50
75489;HTU21D;64069;46.396;48.102;2023-04-01T02:49:32;6.74;59.51
75489;HTU21D;64069;46.396;48.102;2023-04-01T02:51:57;6.74;59.54
75489;HTU21D;64069;46.396;48.102;2023-04-01T02:54:23;6.74;59.57
75489;HTU21D;64069;46.396;48.102;2023-04-01T02:56:49;6.74;59.59
75489;HTU21D;64069;46.396;48.102;2023-04-01T02:59:15;6.76;59.61
75489;HTU21D;64069;46.396;48.102;2023-04-01T03:01:41;6.79;59.62
75489;HTU21D;64069;46.396;48.102;2023-04-01T03:04:07;6.81;59.60
75489;HTU21D;64069;46.396;48.102;2023-04-01T03:06:33;6.85;59.57
75489;HTU21D;64069;46.396;48.102;2023-04-01T03:08:59;6.87;59.50
75489;HTU21D;64069;46.396;48.102;2023-04-01T03:11:25;6.95;59.51
75489;HTU21D;64069;46.396;48.102;2023-04-01T03:13:52;7.02;59.41
75489;HTU21D;64069;46.396;48.102;2023-04-01T03:16:18;7.11;59.24
75489;HTU21D;64069;46.396;48.102;2023-04-01T03:18:44;7.18;59.09
75489;HTU21D;64069;46.396;48.102;2023-04-01T03:21:21;7.26;58.90
75489;HTU21D;64069;46.396;48.102;2023-04-01T03:23:47;7.32;58.78
75489;HTU21D;64069;46.396;48.102;2023-04-01T03:26:13;7.38;58.70
75489;HTU21D;64069;46.396;48.102;2023-04-01T03:28:39;7.43;58.61
75489;HTU21D;64069;46.396;48.102;2023-04-01T03:31:05;7.47;58.53
75489;HTU21D;64069;46.396;48.102;2023-04-01T03:33:39;7.54;58.43
75489;HTU21D;64069;46.396;48.102;2023-04-01T03:36:05;7.60;58.30
75489;HTU21D;64069;46.396;48.102;2023-04-01T03:38:35;7.67;58.22
75489;HTU21D;64069;46.396;48.102;2023-04-01T03:41:01;7.70;58.15
75489;HTU21D;64069;46.396;48.102;2023-04-01T03:43:28;7.73;58.13
75489;HTU21D;64069;46.396;48.102;2023-04-01T03:45:55;7.75;58.13
75489;HTU21D;64069;46.396;48.102;2023-04-01T03:48:24;7.77;58.14
75489;HTU21D;64069;46.396;48.102;2023-04-01T03:50:51;7.81;58.15
75489;HTU21D;64069;46.396;48.102;2023-04-01T03:53:17;7.81;58.07
75489;HTU21D;64069;46.396;48.102;2023-04-01T03:55:45;7.79;58.07
75489;HTU21D;64069;46.396;48.102;2023-04-01T03:58:12;7.79;58.11
75489;HTU21D;64069;46.396;48.102;2023-04-01T04:00:38;7.79;58.13
75489;HTU21D;64069;46.396;48.102;2023-04-01T04:03:06;7.81;58.16
75489;HTU21D;64069;46.396;48.102;2023-04-01T04:05:35;7.83;58.12
75489;HTU21D;64069;46.396;48.102;2023-04-01T04:08:02;7.87;57.99
75489;HTU21D;64069;46.396;48.102;2023-04-01T04:10:28;7.91;57.93
75489;HTU21D;64069;46.396;48.102;2023-04-01T04:12:55;8.00;57.76
75489;HTU21D;64069;46.396;48.102;2023-04-01T04:15:23;8.08;57.56
75489;HTU21D;64069;46.396;48.102;2023-04-01T04:17:49;8.18;57.40
75489;HTU21D;64069;46.396;48.102;2023-04-01T04:20:15;8.27;57.16
75489;HTU21D;64069;46.396;48.102;2023-04-01T04:22:41;8.31;57.03
75489;HTU21D;64069;46.396;48.102;2023-04-01T04:25:08;8.32;57.00
75489;HTU21D;64069;46.396;48.102;2023-04-01T04:27:34;8.35;56.90
75489;HTU21D;64069;46.396;48.102;2023-04-01T04:30:08;8.33;56.90
75489;HTU21D;64069;46.396;48.102;2023-04-01T04:32:35;8.35;56.93
75489;HTU21D;64069;46.396;48.102;2023-04-01T04:35:02;8.38;56.87
75489;HTU21D;64069;46.396;48.102;2023-04-01T04:37:28;8.43;56.84
75489;HTU21D;64069;46.396;48.102;2023-04-01T04:39:54;8.47;56.69
75489;HTU21D;64069;46.396;48.102;2023-04-01T04:42:20;8.51;56.68
75489;HTU21D;64069;46.396;48.102;2023-04-01T04:44:47;8.51;56.60
75489;HTU21D;64069;46.396;48.102;2023-04-01T04:47:13;8.53;56.60
75489;HTU21D;64069;46.396;48.102;2023-04-01T04:49:39;8.52;56.61
75489;HTU21D;64069;46.396;48.102;2023-04-01T04:52:08;8.53;56.66
75489;HTU21D;64069;46.396;48.102;2023-04-01T04:54:35;8.55;56.68
75489;HTU21D;64069;46.396;48.102;2023-04-01T04:57:03;8.56;56.62
75489;HTU21D;64069;46.396;48.102;2023-04-01T04:59:33;8.62;56.64
75489;HTU21D;64069;46.396;48.102;2023-04-01T05:02:07;8.70;56.42
75489;HTU21D;64069;46.396;48.102;2023-04-01T05:04:37;8.77;56.38
75489;HTU21D;64069;46.396;48.102;2023-04-01T05:07:04;8.87;56.23
75489;HTU21D;64069;46.396;48.102;2023-04-01T05:09:31;8.93;55.67
75489;HTU21D;64069;46.396;48.102;2023-04-01T05:11:58;8.97;55.64
75489;HTU21D;64069;46.396;48.102;2023-04-01T05:14:26;9.06;55.50
75489;HTU21D;64069;46.396;48.102;2023-04-01T05:17:02;9.14;55.35
75489;HTU21D;64069;46.396;48.102;2023-04-01T05:19:28;9.19;55.21
75489;HTU21D;64069;46.396;48.102;2023-04-01T05:21:54;9.25;55.14
75489;HTU21D;64069;46.396;48.102;2023-04-01T05:24:20;9.31;54.91
75489;HTU21D;64069;46.396;48.102;2023-04-01T05:26:47;9.35;54.78
75489;HTU21D;64069;46.396;48.102;2023-04-01T05:29:13;9.42;54.62
75489;HTU21D;64069;46.396;48.102;2023-04-01T05:31:39;9.46;54.30
75489;HTU21D;64069;46.396;48.102;2023-04-01T05:34:05;9.45;54.42
75489;HTU21D;64069;46.396;48.102;2023-04-01T05:36:32;9.47;54.48
75489;HTU21D;64069;46.396;48.102;2023-04-01T05:38:58;9.46;54.46
75489;HTU21D;64069;46.396;48.102;2023-04-01T05:41:26;9.44;54.54
75489;HTU21D;64069;46.396;48.102;2023-04-01T05:43:51;9.44;54.51
75489;HTU21D;64069;46.396;48.102;2023-04-01T05:46:35;9.45;54.52
75489;HTU21D;64069;46.396;48.102;2023-04-01T05:49:14;9.44;54.52
75489;HTU21D;64069;46.396;48.102;2023-04-01T05:51:41;9.47;54.55
75489;HTU21D;64069;46.396;48.102;2023-04-01T05:54:07;9.50;54.46
75489;HTU21D;64069;46.396;48.102;2023-04-01T05:56:34;9.47;54.46
75489;HTU21D;64069;46.396;48.102;2023-04-01T05:59:01;9.49;54.45
75489;HTU21D;64069;46.396;48.102;2023-04-01T06:01:27;9.48;54.24
75489;HTU21D;64069;46.396;48.102;2023-04-01T06:03:53;9.48;54.33
75489;HTU21D;64069;46.396;48.102;2023-04-01T06:06:30;9.50;54.11
75489;HTU21D;64069;46.396;48.102;2023-04-01T06:09:23;9.53;54.13
75489;HTU21D;64069;46.396;48.102;2023-04-01T06:15:18;9.52;54.17
75489;HTU21D;64069;46.396;48.102;2023-04-01T06:17:52;9.53;54.14
75489;HTU21D;64069;46.396;48.102;2023-04-01T06:32:06;9.60;53.81
75489;HTU21D;64069;46.396;48.102;2023-04-01T06:49:04;9.63;53.94
75489;HTU21D;64069;46.396;48.102;2023-04-01T06:51:59;9.63;54.00
75489;HTU21D;64069;46.396;48.102;2023-04-01T06:57:59;9.61;54.04
75489;HTU21D;64069;46.396;48.102;2023-04-01T07:05:44;9.63;53.86
75489;HTU21D;64069;46.396;48.102;2023-04-01T07:08:15;9.61;53.79
75489;HTU21D;64069;46.396;48.102;2023-04-01T07:10:58;9.60;53.79
75489;HTU21D;64069;46.396;48.102;2023-04-01T07:14:13;9.60;53.88
75489;HTU21D;64069;46.396;48.102;2023-04-01T07:17:06;9.64;53.84
75489;HTU21D;64069;46.396;48.102;2023-04-01T07:19:50;9.63;53.80
75489;HTU21D;64069;46.396;48.102;2023-04-01T07:22:39;9.63;53.88
75489;HTU21D;64069;46.396;48.102;2023-04-01T07:28:30;9.65;53.78
75489;HTU21D;64069;46.396;48.102;2023-04-01T07:31:29;9.66;53.85
75489;HTU21D;64069;46.396;48.102;2023-04-01T07:34:09;9.67;53.72
75489;HTU21D;64069;46.396;48.102;2023-04-01T07:36:48;9.67;53.68
75489;HTU21D;64069;46.396;48.102;2023-04-01T07:39:38;9.69;53.55
75489;HTU21D;64069;46.396;48.102;2023-04-01T07:50:32;9.71;53.55
75489;HTU21D;64069;46.396;48.102;2023-04-01T08:02:10;10.04;53.19
75489;HTU21D;64069;46.396;48.102;2023-04-01T08:11:10;10.25;53.17
75489;HTU21D;64069;46.396;48.102;2023-04-01T08:13:46;10.34;53.10
75489;HTU21D;64069;46.396;48.102;2023-04-01T08:19:59;10.50;52.90
75489;HTU21D;64069;46.396;48.102;2023-04-01T08:22:40;10.42;52.96
75489;HTU21D;64069;46.396;48.102;2023-04-01T08:25:26;10.38;53.07
75489;HTU21D;64069;46.396;48.102;2023-04-01T08:30:26;10.28;53.23
75489;HTU21D;64069;46.396;48.102;2023-04-01T08:33:05;10.21;53.36
75489;HTU21D;64069;46.396;48.102;2023-04-01T08:38:32;10.09;53.45
75489;HTU21D;64069;46.396;48.102;2023-04-01T08:47:07;10.18;53.54
75489;HTU21D;64069;46.396;48.102;2023-04-01T08:58:47;10.11;53.26
75489;HTU21D;64069;46.396;48.102;2023-04-01T09:01:53;10.08;53.23
75489;HTU21D;64069;46.396;48.102;2023-04-01T09:10:55;10.16;53.01
75489;HTU21D;64069;46.396;48.102;2023-04-01T09:30:32;8.39;57.76
75489;HTU21D;64069;46.396;48.102;2023-04-01T09:39:25;8.20;58.35
75489;HTU21D;64069;46.396;48.102;2023-04-01T09:53:08;8.62;58.23
75489;HTU21D;64069;46.396;48.102;2023-04-01T09:55:57;8.88;56.76
75489;HTU21D;64069;46.396;48.102;2023-04-01T09:59:03;9.03;55.87
75489;HTU21D;64069;46.396;48.102;2023-04-01T10:07:48;8.97;55.58
75489;HTU21D;64069;46.396;48.102;2023-04-01T10:10:31;9.12;54.64
75489;HTU21D;64069;46.396;48.102;2023-04-01T10:13:28;8.88;55.23
75489;HTU21D;64069;46.396;48.102;2023-04-01T10:24:59;7.94;60.25
75489;HTU21D;64069;46.396;48.102;2023-04-01T10:27:49;7.55;63.24
75489;HTU21D;64069;46.396;48.102;2023-04-01T11:12:04;6.79;73.16
75489;HTU21D;64069;46.396;48.102;2023-04-01T11:15:08;6.79;73.82
75489;HTU21D;64069;46.396;48.102;2023-04-01T11:32:39;6.49;76.94
75489;HTU21D;64069;46.396;48.102;2023-04-01T11:38:12;6.49;77.31
75489;HTU21D;64069;46.396;48.102;2023-04-01T11:40:56;6.49;77.19
75489;HTU21D;64069;46.396;48.102;2023-04-01T11:47:44;6.44;78.47
75489;HTU21D;64069;46.396;48.102;2023-04-01T11:56:11;6.02;80.97
75489;HTU21D;64069;46.396;48.102;2023-04-01T12:10:26;5.54;83.82
75489;HTU21D;64069;46.396;48.102;2023-04-01T12:12:41;5.42;83.85
75489;HTU21D;64069;46.396;48.102;2023-04-01T12:15:54;5.36;84.08
75489;HTU21D;64069;46.396;48.102;2023-04-01T12:21:19;5.36;84.29
75489;HTU21D;64069;46.396;48.102;2023-04-01T12:24:25;5.31;85.00
75489;HTU21D;64069;46.396;48.102;2023-04-01T12:30:01;5.19;86.18
75489;HTU21D;64069;46.396;48.102;2023-04-01T12:32:40;5.12;87.46
75489;HTU21D;64069;46.396;48.102;2023-04-01T12:43:21;5.09;88.14
75489;HTU21D;64069;46.396;48.102;2023-04-01T13:17:36;4.76;91.72
75489;HTU21D;64069;46.396;48.102;2023-04-01T13:26:18;4.64;92.24
75489;HTU21D;64069;46.396;48.102;2023-04-01T13:29:10;4.65;91.73
75489;HTU21D;64069;46.396;48.102;2023-04-01T13:45:50;4.64;93.37
75489;HTU21D;64069;46.396;48.102;2023-04-01T13:48:30;4.61;93.39
75489;HTU21D;64069;46.396;48.102;2023-04-01T13:51:15;4.53;93.98
75489;HTU21D;64069;46.396;48.102;2023-04-01T13:59:34;4.51;94.98
75489;HTU21D;64069;46.396;48.102;2023-04-01T14:02:27;4.50;95.04
75489;HTU21D;64069;46.396;48.102;2023-04-01T14:10:54;4.44;95.96
75489;HTU21D;64069;46.396;48.102;2023-04-01T14:19:41;4.43;96.38
75489;HTU21D;64069;46.396;48.102;2023-04-01T14:22:15;4.38;96.56
75489;HTU21D;64069;46.396;48.102;2023-04-01T14:31:08;4.37;96.12
75489;HTU21D;64069;46.396;48.102;2023-04-01T14:33:41;4.43;96.38
75489;HTU21D;64069;46.396;48.102;2023-04-01T14:47:04;4.54;96.44
75489;HTU21D;64069;46.396;48.102;2023-04-01T14:52:21;4.56;96.87
75489;HTU21D;64069;46.396;48.102;2023-04-01T14:54:50;4.56;96.95
75489;HTU21D;64069;46.396;48.102;2023-04-01T15:02:52;4.61;96.70
75489;HTU21D;64069;46.396;48.102;2023-04-01T15:05:44;4.63;96.69
75489;HTU21D;64069;46.396;48.102;2023-04-01T15:22:15;4.74;96.10
75489;HTU21D;64069;46.396;48.102;2023-04-01T15:28:09;4.75;96.32
75489;HTU21D;64069;46.396;48.102;2023-04-01T15:49:56;4.72;97.35
75489;HTU21D;64069;46.396;48.102;2023-04-01T16:06:59;4.76;97.66
75489;HTU21D;64069;46.396;48.102;2023-04-01T16:14:55;4.92;97.23
75489;HTU21D;64069;46.396;48.102;2023-04-01T16:17:31;4.94;96.96
75489;HTU21D;64069;46.396;48.102;2023-04-01T16:25:36;5.01;96.84
75489;HTU21D;64069;46.396;48.102;2023-04-01T16:33:49;5.13;96.59
75489;HTU21D;64069;46.396;48.102;2023-04-01T16:36:30;5.19;96.49
75489;HTU21D;64069;46.396;48.102;2023-04-01T16:39:27;5.26;96.23
75489;HTU21D;64069;46.396;48.102;2023-04-01T16:44:26;5.38;95.83
75489;HTU21D;64069;46.396;48.102;2023-04-01T16:47:06;5.45;95.70
75489;HTU21D;64069;46.396;48.102;2023-04-01T16:49:39;5.48;95.49
75489;HTU21D;64069;46.396;48.102;2023-04-01T16:54:59;5.52;95.17
75489;HTU21D;64069;46.396;48.102;2023-04-01T17:00:16;5.57;94.99
75489;HTU21D;64069;46.396;48.102;2023-04-01T17:08:56;5.67;94.65
75489;HTU21D;64069;46.396;48.102;2023-04-01T17:12:00;5.69;94.49
75489;HTU21D;64069;46.396;48.102;2023-04-01T17:26:12;5.71;94.29
75489;HTU21D;64069;46.396;48.102;2023-04-01T17:43:12;5.71;94.31
75489;HTU21D;64069;46.396;48.102;2023-04-01T17:45:54;5.71;94.27
75489;HTU21D;64069;46.396;48.102;2023-04-01T17:48:41;5.71;94.27
75489;HTU21D;64069;46.396;48.102;2023-04-01T17:51:31;5.74;94.26
75489;HTU21D;64069;46.396;48.102;2023-04-01T17:59:34;5.81;93.98
75489;HTU21D;64069;46.396;48.102;2023-04-01T18:02:58;5.82;93.81
75489;HTU21D;64069;46.396;48.102;2023-04-01T18:11:28;5.90;93.37
75489;HTU21D;64069;46.396;48.102;2023-04-01T18:20:45;5.96;93.19
75489;HTU21D;64069;46.396;48.102;2023-04-01T18:23:36;5.96;93.11
75489;HTU21D;64069;46.396;48.102;2023-04-01T18:26:12;5.99;93.13
75489;HTU21D;64069;46.396;48.102;2023-04-01T18:28:54;6.00;93.01
75489;HTU21D;64069;46.396;48.102;2023-04-01T18:31:25;6.02;93.07
75489;HTU21D;64069;46.396;48.102;2023-04-01T18:34:13;6.07;93.06
75489;HTU21D;64069;46.396;48.102;2023-04-01T18:36:55;6.07;92.99
75489;HTU21D;64069;46.396;48.102;2023-04-01T18:39:32;6.09;92.88
75489;HTU21D;64069;46.396;48.102;2023-04-01T18:42:06;6.10;92.88
75489;HTU21D;64069;46.396;48.102;2023-04-01T18:44:55;6.12;92.79
75489;HTU21D;64069;46.396;48.102;2023-04-01T18:47:45;6.14;92.78
75489;HTU21D;64069;46.396;48.102;2023-04-01T18:52:44;6.17;92.78
75489;HTU21D;64069;46.396;48.102;2023-04-01T18:55:28;6.21;92.67
75489;HTU21D;64069;46.396;48.102;2023-04-01T18:58:18;6.24;92.69
75489;HTU21D;64069;46.396;48.102;2023-04-01T19:06:28;6.31;92.36
75489;HTU21D;64069;46.396;48.102;2023-04-01T19:08:54;6.34;92.37
75489;HTU21D;64069;46.396;48.102;2023-04-01T19:11:39;6.38;92.37
75489;HTU21D;64069;46.396;48.102;2023-04-01T19:22:47;6.48;92.05
75489;HTU21D;64069;46.396;48.102;2023-04-01T19:31:08;6.56;91.82
75489;HTU21D;64069;46.396;48.102;2023-04-01T19:36:44;6.65;91.53
75489;HTU21D;64069;46.396;48.102;2023-04-01T19:40:28;6.67;91.44
75489;HTU21D;64069;46.396;48.102;2023-04-01T19:42:43;6.70;91.29
75489;HTU21D;64069;46.396;48.102;2023-04-01T19:56:12;6.80;90.80
75489;HTU21D;64069;46.396;48.102;2023-04-01T19:58:47;6.81;90.72
75489;HTU21D;64069;46.396;48.102;2023-04-01T20:01:22;6.83;90.69
75489;HTU21D;64069;46.396;48.102;2023-04-01T20:03:55;6.84;90.62
75489;HTU21D;64069;46.396;48.102;2023-04-01T20:09:07;6.86;90.51
75489;HTU21D;64069;46.396;48.102;2023-04-01T20:11:53;6.87;90.51
75489;HTU21D;64069;46.396;48.102;2023-04-01T20:14:36;6.89;90.45
75489;HTU21D;64069;46.396;48.102;2023-04-01T20:20:14;6.88;90.43
75489;HTU21D;64069;46.396;48.102;2023-04-01T20:23:06;6.89;90.36
75489;HTU21D;64069;46.396;48.102;2023-04-01T20:26:12;6.89;90.31
75489;HTU21D;64069;46.396;48.102;2023-04-01T20:31:25;6.94;90.24
75489;HTU21D;64069;46.396;48.102;2023-04-01T20:34:14;6.93;90.15
75489;HTU21D;64069;46.396;48.102;2023-04-01T20:37:10;6.95;90.12
75489;HTU21D;64069;46.396;48.102;2023-04-01T20:45:01;6.94;89.92
75489;HTU21D;64069;46.396;48.102;2023-04-01T20:50:34;6.83;90.20
75489;HTU21D;64069;46.396;48.102;2023-04-01T20:56:28;6.83;90.59
75489;HTU21D;64069;46.396;48.102;2023-04-01T21:26:26;7.09;88.93
75489;HTU21D;64069;46.396;48.102;2023-04-01T21:28:59;7.05;89.00
75489;HTU21D;64069;46.396;48.102;2023-04-01T21:42:22;7.03;88.85
75489;HTU21D;64069;46.396;48.102;2023-04-01T22:09:39;7.02;88.27
75489;HTU21D;64069;46.396;48.102;2023-04-01T22:14:54;7.01;88.21
75489;HTU21D;64069;46.396;48.102;2023-04-01T22:17:40;7.01;88.12
75489;HTU21D;64069;46.396;48.102;2023-04-01T22:20:39;7.01;88.06
75489;HTU21D;64069;46.396;48.102;2023-04-01T22:26:42;7.03;87.77
75489;HTU21D;64069;46.396;48.102;2023-04-01T22:29:11;7.02;87.73
75489;HTU21D;64069;46.396;48.102;2023-04-01T22:31:56;7.03;87.75
75489;HTU21D;64069;46.396;48.102;2023-04-01T22:34:37;7.03;87.68
75489;HTU21D;64069;46.396;48.102;2023-04-01T22:37:21;7.02;87.70
75489;HTU21D;64069;46.396;48.102;2023-04-01T22:40:34;7.01;87.73
75489;HTU21D;64069;46.396;48.102;2023-04-01T22:43:06;6.99;87.83
75489;HTU21D;64069;46.396;48.102;2023-04-01T22:45:48;6.99;87.82
75489;HTU21D;64069;46.396;48.102;2023-04-01T22:51:15;7.01;87.68
75489;HTU21D;64069;46.396;48.102;2023-04-01T22:56:16;6.99;87.67
75489;HTU21D;64069;46.396;48.102;2023-04-01T22:58:53;6.99;87.64
75489;HTU21D;64069;46.396;48.102;2023-04-01T23:01:24;6.99;87.57
75489;HTU21D;64069;46.396;48.102;2023-04-01T23:03:51;7.01;87.40
75489;HTU21D;64069;46.396;48.102;2023-04-01T23:06:23;7.02;87.18
75489;HTU21D;64069;46.396;48.102;2023-04-01T23:11:52;7.05;86.70
75489;HTU21D;64069;46.396;48.102;2023-04-01T23:22:49;7.09;85.80
75489;HTU21D;64069;46.396;48.102;2023-04-01T23:33:15;7.04;85.63
75489;HTU21D;64069;46.396;48.102;2023-04-01T23:35:50;7.08;85.43
75489;HTU21D;64069;46.396;48.102;2023-04-01T23:38:18;7.07;85.14
75489;HTU21D;64069;46.396;48.102;2023-04-01T23:40:49;7.07;85.06
75489;HTU21D;64069;46.396;48.102;2023-04-01T23:43:26;7.05;84.96
75489;HTU21D;64069;46.396;48.102;2023-04-01T23:45:55;7.08;84.74
75489;HTU21D;64069;46.396;48.102;2023-04-01T23:48:29;7.12;84.42
75489;HTU21D;64069;46.396;48.102;2023-04-01T23:50:57;7.14;84.14
75489;HTU21D;64069;46.396;48.102;2023-04-01T23:53:25;7.16;83.81
75489;HTU21D;64069;46.396;48.102;2023-04-01T23:55:54;7.18;83.50
75489;HTU21D;64069;46.396;48.102;2023-04-01T23:58:26;7.17;83.24
